Terminal Aerodrome Forecast
Issued by NWS Green Bay, WI

Home | Current Version | Previous Version | Text Only | Print | Product List | Glossary On
Versions: 1 2 3 4 5 6 7 8 9 10 11 12 13 14 15 16 17 18 19 20 21 22 23 24 25 26 27 28 29 30 31 32 33 34
794
FTUS43 KGRB 251135
TAFGRB
TAF
KGRB 251135Z 2512/2612 04013KT 3SM BR OVC004
      TEMPO 2512/2513 1SM BR VV002
     FM251500 08009G15KT P6SM BKN012
      TEMPO 2515/2517 SCT020
     FM251700 08011G17KT P6SM SCT100 BKN200
     FM260000 10007KT 6SM -SHRA BR BKN035 OVC100
      TEMPO 2601/2605 2SM +TSRA BKN008 OVC020CB
     FM260700 17005KT 2SM BR SCT006 BKN012=

USA.gov is the U.S. government's official web portal to all federal, state and local government web resources and services.